Time;durP1;ratioP1;P1;durP2;ratioP2;P2;SDS_P1;SDS_P2;PMS_P1;PMS_P2;Temp;Humidity;BMP_temperature;BMP_pressure;BME280_temperature;BME280_humidity;BME280_pressure;Samples;Min_cycle;Max_cycle;Signal;HPM_P1;HPM_P2
2022/10/27 00:01:18;;;;;;;1.98;1.10;;;;;;;19.53;58.37;102093.63;5063580;28;20045;-54
2022/10/27 00:03:43;;;;;;;1.33;1.20;;;;;;;19.45;58.76;102082.69;5063947;28;20711;-55
2022/10/27 00:06:08;;;;;;;1.73;1.30;;;;;;;19.53;58.41;102104.41;5063575;28;20090;-54
2022/10/27 00:08:34;;;;;;;1.85;1.30;;;;;;;19.53;58.69;102095.47;5063413;28;20033;-52
2022/10/27 00:11:01;;;;;;;1.98;1.33;;;;;;;19.47;58.92;102083.41;5063754;28;20046;-53
2022/10/27 00:13:27;;;;;;;1.83;1.30;;;;;;;19.43;58.32;102071.22;5057088;28;20025;-50
2022/10/27 00:16:00;;;;;;;1.10;1.00;;;;;;;19.52;58.31;102099.16;5043302;28;20032;-53
2022/10/27 00:18:25;;;;;;;1.38;1.20;;;;;;;19.51;58.76;102100.16;5043680;28;20029;-54
2022/10/27 00:21:06;;;;;;;2.17;1.17;;;;;;;19.51;58.37;102097.47;5043506;28;20087;-54
2022/10/27 00:23:32;;;;;;;1.52;1.17;;;;;;;19.51;58.56;102108.25;5055569;28;20051;-53
2022/10/27 00:25:57;;;;;;;1.40;1.02;;;;;;;19.51;58.62;102100.16;5057880;28;20467;-54
2022/10/27 00:28:23;;;;;;;1.52;1.10;;;;;;;19.49;58.62;102103.84;5043473;28;20030;-50
2022/10/27 00:30:59;;;;;;;1.83;1.20;;;;;;;19.49;58.44;102105.69;5042949;28;20113;-54
2022/10/27 00:33:24;;;;;;;1.17;1.08;;;;;;;19.49;58.52;102105.69;5043689;28;20090;-54
2022/10/27 00:35:49;;;;;;;1.25;1.10;;;;;;;19.49;58.48;102111.06;5048672;28;20017;-51
2022/10/27 00:38:15;;;;;;;1.35;1.10;;;;;;;19.49;58.74;102113.78;5063560;28;20089;-53
2022/10/27 00:40:40;;;;;;;1.67;1.10;;;;;;;19.47;58.70;102111.22;5063290;28;20017;-52
2022/10/27 00:43:23;;;;;;;1.73;1.10;;;;;;;19.47;58.44;102111.22;5063566;28;20789;-52
2022/10/27 00:45:48;;;;;;;3.03;1.20;;;;;;;19.47;58.05;102111.22;5062856;28;20024;-53
2022/10/27 00:48:13;;;;;;;1.30;1.20;;;;;;;19.43;58.49;102107.13;5063531;28;20029;-51
2022/10/27 00:50:39;;;;;;;1.50;1.40;;;;;;;19.46;58.46;102109.53;5063328;28;20058;-53
2022/10/27 00:53:04;;;;;;;2.08;1.23;;;;;;;19.38;58.52;102108.53;5063445;28;20454;-53
2022/10/27 00:55:32;;;;;;;1.38;1.20;;;;;;;19.46;58.46;102125.72;5062552;28;20079;-54
2022/10/27 00:58:00;;;;;;;1.50;1.40;;;;;;;19.38;58.54;102116.63;5066278;28;20044;-54
2022/10/27 01:00:25;;;;;;;1.67;1.30;;;;;;;19.42;58.70;102116.22;5065391;28;20084;-52
2022/10/27 01:02:51;;;;;;;1.42;1.30;;;;;;;19.42;58.46;102121.59;5066326;28;20021;-55
2022/10/27 01:05:24;;;;;;;1.30;1.15;;;;;;;19.44;58.58;102125.00;5065548;28;20033;-55
2022/10/27 01:07:53;;;;;;;1.20;1.10;;;;;;;19.44;58.47;102130.38;5066339;28;20124;-53
2022/10/27 01:10:18;;;;;;;1.10;1.00;;;;;;;19.40;58.28;102123.56;5065798;28;20031;-52
2022/10/27 01:12:44;;;;;;;1.30;1.17;;;;;;;19.42;58.69;102112.66;5066400;28;20116;-53
2022/10/27 01:15:10;;;;;;;1.30;1.02;;;;;;;19.43;58.62;102120.59;5046808;28;20034;-53
2022/10/27 01:17:43;;;;;;;1.45;1.25;;;;;;;19.43;58.24;102119.75;5046900;28;20040;-56
2022/10/27 01:20:50;;;;;;;1.38;1.20;;;;;;;19.42;58.21;102132.41;5045295;28;20064;-53
2022/10/27 01:23:30;;;;;;;1.80;1.20;;;;;;;19.43;58.76;102141.34;5062258;28;20027;-56
2022/10/27 01:26:18;;;;;;;1.60;1.20;;;;;;;19.41;58.27;102133.41;5066646;28;20101;-55
2022/10/27 01:29:15;;;;;;;2.05;1.23;;;;;;;19.41;58.49;102138.78;5024061;28;20057;-55
2022/10/27 01:31:47;;;;;;;1.60;1.20;;;;;;;19.42;58.50;102142.34;5024014;28;20034;-55
2022/10/27 01:34:25;;;;;;;1.35;1.20;;;;;;;19.40;58.23;102141.59;5008046;28;20048;-52
2022/10/27 01:36:54;;;;;;;1.77;1.13;;;;;;;19.40;58.40;102136.22;5007767;28;20036;-53
2022/10/27 01:39:42;;;;;;;0.95;0.88;;;;;;;19.40;58.31;102141.59;5007635;28;20042;-53
2022/10/27 01:42:18;;;;;;;1.63;1.20;;;;;;;19.37;58.14;102137.38;5007962;28;20056;-54
2022/10/27 01:44:46;;;;;;;1.52;1.10;;;;;;;19.39;58.59;102145.31;5023906;28;20045;-54
2022/10/27 01:47:12;;;;;;;1.48;1.20;;;;;;;19.36;58.22;102148.28;5024017;28;20048;-53
2022/10/27 01:49:39;;;;;;;1.67;1.23;;;;;;;19.37;58.48;102156.25;5024091;28;20030;-52
2022/10/27 01:52:06;;;;;;;1.77;1.27;;;;;;;19.37;58.42;102149.97;5023949;28;20684;-52
2022/10/27 01:54:32;;;;;;;1.30;1.20;;;;;;;19.38;58.25;102155.25;5023727;28;20057;-50
2022/10/27 01:57:12;;;;;;;0.95;0.90;;;;;;;19.37;58.54;102156.25;5024177;28;20033;-50
2022/10/27 02:00:03;;;;;;;1.38;1.15;;;;;;;19.36;58.14;102159.91;5007185;28;20064;-54
2022/10/27 02:02:38;;;;;;;2.38;1.08;;;;;;;19.37;58.28;102164.34;5023709;28;20029;-53
2022/10/27 02:05:06;;;;;;;1.27;1.02;;;;;;;19.31;58.26;102151.41;5032159;28;20056;-53
2022/10/27 02:07:37;;;;;;;0.93;0.93;;;;;;;19.37;58.45;102163.47;5065701;28;20418;-54
2022/10/27 02:10:10;;;;;;;1.70;1.23;;;;;;;19.35;58.37;102151.97;5064644;28;20047;-54
2022/10/27 02:12:37;;;;;;;2.55;1.10;;;;;;;19.35;58.58;102146.59;5064965;28;20147;-50
2022/10/27 02:15:06;;;;;;;1.50;1.10;;;;;;;19.34;58.28;102153.81;5045846;28;20124;-50
2022/10/27 02:17:35;;;;;;;1.40;1.00;;;;;;;19.34;58.30;102145.72;5044264;28;20075;-48
2022/10/27 02:20:03;;;;;;;1.40;1.23;;;;;;;19.29;58.12;102137.22;5045520;28;20059;-52
2022/10/27 02:22:30;;;;;;;1.50;1.00;;;;;;;19.34;58.15;102150.28;5044602;28;20125;-51
2022/10/27 02:24:56;;;;;;;1.73;0.93;;;;;;;19.33;58.43;102146.72;5044054;28;20029;-51
2022/10/27 02:27:32;;;;;;;1.77;1.50;;;;;;;19.23;58.37;102121.59;5044474;28;20063;-53
2022/10/27 02:29:58;;;;;;;1.90;1.20;;;;;;;19.33;58.49;102132.41;5044369;28;20033;-55
2022/10/27 02:32:23;;;;;;;1.20;1.00;;;;;;;19.32;58.03;102139.59;5044118;28;20033;-56
2022/10/27 02:34:49;;;;;;;1.33;1.17;;;;;;;19.31;58.10;102135.22;5045579;28;20056;-54
2022/10/27 02:37:21;;;;;;;1.50;1.00;;;;;;;19.31;58.25;102135.22;5060610;28;20066;-55
2022/10/27 02:39:46;;;;;;;1.45;1.33;;;;;;;19.22;58.33;102120.75;5063925;28;20105;-54
2022/10/27 02:42:11;;;;;;;1.13;1.02;;;;;;;19.32;58.25;102136.06;5065660;28;20625;-54
2022/10/27 02:44:37;;;;;;;1.50;0.90;;;;;;;19.31;58.41;102128.97;5065178;28;20029;-55
2022/10/27 02:47:02;;;;;;;1.25;0.95;;;;;;;19.31;58.00;102129.81;5065055;28;20060;-54
2022/10/27 02:49:27;;;;;;;1.35;1.23;;;;;;;19.28;58.13;102123.84;5065317;28;20089;-54
2022/10/27 02:51:52;;;;;;;1.52;1.10;;;;;;;19.29;58.38;102126.44;5065269;28;20116;-55
2022/10/27 02:54:18;;;;;;;1.10;1.00;;;;;;;19.30;58.22;102121.88;5065128;28;20029;-53
2022/10/27 02:56:43;;;;;;;1.33;1.20;;;;;;;19.29;58.27;102118.34;5065233;28;20033;-56
2022/10/27 02:59:08;;;;;;;1.58;1.40;;;;;;;19.30;58.11;102116.50;5064975;28;20083;-56
2022/10/27 03:01:33;;;;;;;1.63;1.08;;;;;;;19.27;58.15;102104.13;5064557;28;20045;-55
2022/10/27 03:03:59;;;;;;;1.92;1.08;;;;;;;19.29;58.08;102104.88;5065214;28;20033;-54
2022/10/27 03:06:24;;;;;;;2.05;1.10;;;;;;;19.29;58.28;102104.00;5064669;28;20089;-54
2022/10/27 03:08:49;;;;;;;1.20;0.90;;;;;;;19.25;58.24;102100.75;5064574;28;20028;-56
2022/10/27 03:11:14;;;;;;;2.22;1.10;;;;;;;19.28;58.19;102113.06;5064911;28;20025;-50
2022/10/27 03:13:40;;;;;;;1.25;1.10;;;;;;;19.28;58.01;102108.53;5056422;28;20082;-52
2022/10/27 03:16:05;;;;;;;1.65;1.17;;;;;;;19.27;58.36;102112.22;5044216;28;20639;-53
2022/10/27 03:18:30;;;;;;;1.63;1.42;;;;;;;19.26;57.96;102112.38;5044223;28;20055;-54
2022/10/27 03:20:56;;;;;;;1.17;1.08;;;;;;;19.21;58.41;102102.88;5044476;28;20057;-53
2022/10/27 03:23:21;;;;;;;1.15;1.05;;;;;;;19.27;57.97;102111.38;5044694;28;20025;-55
2022/10/27 03:25:46;;;;;;;1.23;1.10;;;;;;;19.26;58.29;102115.91;5059693;28;20021;-51
2022/10/27 03:28:11;;;;;;;1.48;1.20;;;;;;;19.26;58.33;102115.06;5044617;28;20033;-51
2022/10/27 03:30:37;;;;;;;1.77;1.20;;;;;;;19.26;58.08;102109.69;5043017;28;20033;-55
2022/10/27 03:33:02;;;;;;;1.58;1.10;;;;;;;19.15;58.15;102089.94;5044696;28;20025;-52
2022/10/27 03:35:28;;;;;;;1.83;1.27;;;;;;;19.25;58.15;102106.13;5047767;28;20020;-53
2022/10/27 03:37:55;;;;;;;1.58;1.30;;;;;;;19.23;58.17;102102.72;5064611;28;20036;-55
2022/10/27 03:40:20;;;;;;;1.45;1.27;;;;;;;19.25;58.33;102111.53;5064175;28;20051;-53
2022/10/27 03:42:45;;;;;;;1.70;1.10;;;;;;;19.25;58.13;102108.00;5064598;28;20036;-52
2022/10/27 03:45:11;;;;;;;1.42;1.20;;;;;;;19.24;58.13;102109.81;5064050;28;20025;-52
2022/10/27 03:47:36;;;;;;;1.83;1.10;;;;;;;19.23;58.13;102106.25;5063954;28;20662;-54
2022/10/27 03:50:02;;;;;;;1.08;0.98;;;;;;;19.23;57.87;102114.34;5063962;28;20032;-56
2022/10/27 03:52:27;;;;;;;1.13;1.00;;;;;;;19.23;58.04;102110.81;5064400;28;20031;-54
2022/10/27 03:54:52;;;;;;;0.98;0.98;;;;;;;19.22;58.30;102109.97;5063842;28;20059;-54
2022/10/27 03:57:18;;;;;;;1.30;0.90;;;;;;;19.22;58.20;102112.66;5064064;28;20021;-54
2022/10/27 03:59:43;;;;;;;1.83;1.23;;;;;;;19.13;58.28;102097.31;5063802;28;20037;-55
2022/10/27 04:02:08;;;;;;;1.23;1.10;;;;;;;19.19;58.07;102106.69;5063613;28;20029;-56
2022/10/27 04:04:33;;;;;;;1.30;1.20;;;;;;;19.15;58.05;102097.19;5063914;28;20089;-55
2022/10/27 04:06:59;;;;;;;1.38;1.10;;;;;;;19.11;58.23;102087.66;5059213;28;20036;-56
2022/10/27 04:09:24;;;;;;;1.50;1.00;;;;;;;19.21;58.12;102102.88;5063637;28;20523;-54
2022/10/27 04:11:49;;;;;;;1.55;1.13;;;;;;;19.21;58.02;102107.41;5063600;28;20063;-56
2022/10/27 04:14:14;;;;;;;1.48;1.10;;;;;;;19.18;58.20;102103.13;5050359;28;20034;-56
2022/10/27 04:16:40;;;;;;;1.95;1.20;;;;;;;19.10;58.01;102094.91;5043296;28;20024;-53
2022/10/27 04:19:05;;;;;;;1.65;1.33;;;;;;;19.20;58.08;102111.97;5042270;28;20035;-55
2022/10/27 04:21:30;;;;;;;1.30;1.05;;;;;;;19.19;58.36;102109.38;5050309;28;20036;-56
2022/10/27 04:23:55;;;;;;;1.35;1.10;;;;;;;19.15;58.03;102097.19;5063453;28;20028;-57
2022/10/27 04:26:20;;;;;;;1.20;1.10;;;;;;;19.15;58.16;102099.88;5063438;28;20433;-56
2022/10/27 04:28:46;;;;;;;1.55;1.30;;;;;;;19.20;58.32;102103.03;5063417;28;20174;-54
2022/10/27 04:31:11;;;;;;;1.65;1.20;;;;;;;19.20;58.06;102114.66;5062906;28;20028;-56
2022/10/27 04:33:36;;;;;;;1.55;1.27;;;;;;;19.20;58.12;102122.75;5063575;28;20021;-56
2022/10/27 04:36:02;;;;;;;1.20;1.10;;;;;;;19.16;58.15;102115.06;5062606;28;20037;-56
2022/10/27 04:38:27;;;;;;;1.20;1.10;;;;;;;19.20;58.32;102116.50;5063661;28;20112;-56
2022/10/27 04:40:52;;;;;;;1.58;1.15;;;;;;;19.20;58.26;102124.59;5062886;28;20032;-55
2022/10/27 04:43:17;;;;;;;1.25;1.10;;;;;;;19.19;58.41;102112.94;5063691;28;20024;-56
2022/10/27 04:45:43;;;;;;;1.60;1.40;;;;;;;19.20;58.42;102116.50;5062573;28;20029;-55
2022/10/27 04:48:08;;;;;;;2.03;1.30;;;;;;;19.20;58.31;102117.34;5063166;28;20098;-55
2022/10/27 04:50:33;;;;;;;2.13;1.30;;;;;;;19.19;58.43;102121.00;5062661;28;20099;-56
2022/10/27 04:53:00;;;;;;;1.70;1.13;;;;;;;19.11;58.29;102099.31;5062829;28;20017;-54
2022/10/27 04:55:27;;;;;;;1.67;1.23;;;;;;;19.18;58.15;102111.22;5062466;28;20021;-53
2022/10/27 04:57:53;;;;;;;2.42;1.35;;;;;;;19.20;58.11;102111.97;5062775;28;20029;-54
2022/10/27 05:00:19;;;;;;;2.08;1.27;;;;;;;19.21;58.35;102118.19;5062595;28;20106;-56
2022/10/27 05:02:44;;;;;;;1.33;1.10;;;;;;;19.21;58.27;102107.41;5061139;28;20013;-53
2022/10/27 05:05:09;;;;;;;2.42;1.45;;;;;;;19.12;58.48;102100.19;5062023;28;20047;-56
2022/10/27 05:07:35;;;;;;;1.50;1.08;;;;;;;19.21;58.65;102116.34;5059584;28;20029;-56
2022/10/27 05:10:00;;;;;;;1.27;1.17;;;;;;;19.21;58.33;102110.09;5062382;28;20083;-53
2022/10/27 05:12:25;;;;;;;1.10;1.00;;;;;;;19.22;58.48;102117.19;5063029;28;20096;-52
2022/10/27 05:14:50;;;;;;;1.60;1.50;;;;;;;19.21;58.87;102115.50;5062259;28;20021;-54
2022/10/27 05:17:16;;;;;;;1.85;1.42;;;;;;;19.21;58.62;102115.50;5062481;28;20136;-54
2022/10/27 05:19:41;;;;;;;1.73;1.20;;;;;;;19.21;58.57;102113.66;5062920;28;20040;-55
2022/10/27 05:22:06;;;;;;;1.80;1.20;;;;;;;19.21;58.73;102113.66;5062233;28;20032;-55
2022/10/27 05:24:31;;;;;;;1.48;1.20;;;;;;;19.08;58.70;102096.06;5062872;28;20552;-53
2022/10/27 05:26:56;;;;;;;1.90;1.45;;;;;;;19.21;58.49;102112.81;5062155;28;20079;-54
2022/10/27 05:29:22;;;;;;;1.63;1.50;;;;;;;19.21;58.79;102110.09;5062456;28;20036;-56
2022/10/27 05:31:47;;;;;;;2.47;1.45;;;;;;;19.20;58.60;102111.13;5062309;28;20116;-52
2022/10/27 05:34:12;;;;;;;1.90;1.48;;;;;;;19.21;58.74;102120.91;5062904;28;20044;-56
2022/10/27 05:36:38;;;;;;;1.40;1.13;;;;;;;19.21;58.52;102119.03;5062060;28;20063;-56
2022/10/27 05:39:03;;;;;;;1.48;1.35;;;;;;;19.19;58.60;102109.38;5062893;28;20037;-57
2022/10/27 05:41:28;;;;;;;1.38;1.20;;;;;;;19.17;58.82;102109.53;5063334;28;20025;-57
2022/10/27 05:43:53;;;;;;;1.50;1.40;;;;;;;19.20;58.77;102117.34;5066460;28;20114;-56
2022/10/27 05:46:19;;;;;;;1.65;1.40;;;;;;;19.21;58.79;102116.34;5065826;28;20040;-53
2022/10/27 05:48:44;;;;;;;1.95;1.48;;;;;;;19.20;58.74;102125.44;5066401;28;20029;-52
2022/10/27 05:51:09;;;;;;;1.42;1.33;;;;;;;19.21;58.64;102121.75;5065774;28;20039;-54
2022/10/27 05:53:35;;;;;;;1.42;1.30;;;;;;;19.19;58.74;102123.72;5066532;28;20466;-55
2022/10/27 05:56:00;;;;;;;1.73;1.40;;;;;;;19.21;59.25;102121.75;5065997;28;20566;-55
2022/10/27 05:58:25;;;;;;;1.52;1.23;;;;;;;19.10;58.87;102103.00;5066308;28;20028;-53
2022/10/27 06:00:50;;;;;;;1.90;1.60;;;;;;;19.20;58.65;102117.34;5065313;28;20056;-52
2022/10/27 06:03:22;;;;;;;1.30;1.10;;;;;;;19.20;59.04;102120.03;5066346;28;20032;-56
2022/10/27 06:05:50;;;;;;;1.63;1.30;;;;;;;19.15;58.78;102110.66;5064252;28;20075;-53
2022/10/27 06:08:16;;;;;;;3.88;1.20;;;;;;;19.20;59.15;102114.66;5047524;28;20108;-53
2022/10/27 06:10:41;;;;;;;1.80;1.40;;;;;;;19.20;58.95;102114.66;5045811;28;20634;-53
2022/10/27 06:13:09;;;;;;;1.83;1.60;;;;;;;19.20;59.14;102125.44;5045904;28;20029;-53
2022/10/27 06:15:34;;;;;;;2.08;1.10;;;;;;;19.16;59.04;102107.84;5045734;28;20048;-55
2022/10/27 06:18:00;;;;;;;1.50;1.40;;;;;;;19.20;58.97;102120.03;5045362;28;20034;-51
2022/10/27 06:20:26;;;;;;;2.75;1.50;;;;;;;19.12;58.75;102105.56;5045740;28;20028;-57
2022/10/27 06:22:51;;;;;;;2.47;1.65;;;;;;;19.18;58.88;102105.00;5045169;28;20029;-53
2022/10/27 06:25:17;;;;;;;1.88;1.40;;;;;;;19.19;59.20;102115.63;5045305;28;20030;-52
2022/10/27 06:27:42;;;;;;;2.30;1.30;;;;;;;19.20;58.78;102121.91;5045551;28;20032;-50
2022/10/27 06:30:07;;;;;;;2.15;1.55;;;;;;;19.19;59.14;102120.16;5052091;28;20036;-54
2022/10/27 06:32:39;;;;;;;2.05;1.40;;;;;;;19.19;58.66;102125.56;5064491;28;20047;-54
2022/10/27 06:35:06;;;;;;;1.40;1.10;;;;;;;19.18;58.89;102119.31;5054394;28;20013;-54
2022/10/27 06:37:31;;;;;;;1.42;1.20;;;;;;;19.17;58.74;102114.06;5065224;28;20051;-56
2022/10/27 06:39:56;;;;;;;1.55;1.30;;;;;;;19.18;58.70;102124.72;5065310;28;20519;-55
2022/10/27 06:42:23;;;;;;;2.53;1.30;;;;;;;19.18;58.99;102129.25;5065562;28;20036;-54
2022/10/27 06:44:48;;;;;;;2.90;1.63;;;;;;;19.18;58.92;102126.56;5065316;28;20080;-56
2022/10/27 06:47:14;;;;;;;1.38;1.27;;;;;;;19.17;58.92;102117.63;5064950;28;20028;-54
2022/10/27 06:49:39;;;;;;;2.28;1.48;;;;;;;19.17;58.53;102125.72;5064061;28;20055;-54
2022/10/27 06:52:04;;;;;;;4.05;1.55;;;;;;;19.16;58.57;102124.00;5064518;28;20021;-55
2022/10/27 06:54:30;;;;;;;4.57;1.88;;;;;;;19.16;58.82;102126.72;5063890;28;20064;-53
2022/10/27 06:56:55;;;;;;;1.83;1.42;;;;;;;19.13;58.81;102113.50;5065185;28;20016;-57
2022/10/27 06:59:20;;;;;;;2.42;1.70;;;;;;;19.05;58.87;102101.72;5064908;28;20035;-56
2022/10/27 07:01:46;;;;;;;2.33;1.67;;;;;;;19.15;58.64;102119.59;5063977;28;20048;-54
2022/10/27 07:04:11;;;;;;;2.75;1.45;;;;;;;19.13;58.96;102113.50;5064679;28;20040;-54
2022/10/27 07:06:36;;;;;;;2.63;1.88;;;;;;;19.15;58.72;102122.28;5064208;28;20032;-53
2022/10/27 07:09:02;;;;;;;5.78;1.77;;;;;;;19.15;58.52;102116.91;5064576;28;20638;-54
2022/10/27 07:11:27;;;;;;;3.58;2.17;;;;;;;19.13;58.50;102113.50;5064834;28;20052;-55
2022/10/27 07:13:53;;;;;;;2.65;1.50;;;;;;;19.16;58.83;102121.31;5054698;28;20048;-53
2022/10/27 07:16:18;;;;;;;3.88;1.77;;;;;;;19.12;58.75;102100.19;5044057;28;20017;-54
2022/10/27 07:18:44;;;;;;;2.72;2.35;;;;;;;19.17;58.77;102111.38;5044860;28;20022;-55
2022/10/27 07:21:09;;;;;;;1.92;1.75;;;;;;;19.17;58.55;102114.06;5044042;28;20100;-55
2022/10/27 07:23:34;;;;;;;2.70;1.77;;;;;;;19.14;58.52;102104.41;5044774;28;20037;-56
2022/10/27 07:26:00;;;;;;;5.18;2.10;;;;;;;19.16;58.55;102107.00;5044209;28;20036;-55
2022/10/27 07:28:25;;;;;;;2.10;1.75;;;;;;;19.19;58.81;102114.78;5044449;28;20073;-56
2022/10/27 07:30:53;;;;;;;2.88;1.70;;;;;;;19.19;58.43;102112.94;5043873;28;20086;-55
2022/10/27 07:33:18;;;;;;;2.22;1.55;;;;;;;19.20;58.43;102103.03;5050868;28;20021;-56
2022/10/27 07:35:47;;;;;;;2.72;1.70;;;;;;;19.21;58.61;102102.88;5063641;28;20035;-56
2022/10/27 07:38:12;;;;;;;;;;;;;;;19.23;58.65;102108.09;5065204;28;20037;-56
2022/10/27 07:40:38;;;;;;;3.33;2.10;;;;;;;19.24;58.26;102112.50;5063947;28;19909;-54
2022/10/27 07:43:03;;;;;;;3.70;2.17;;;;;;;19.25;58.37;102116.94;5059613;28;20063;-59
2022/10/27 07:45:28;;;;;;;4.13;2.03;;;;;;;19.24;58.39;102115.19;5042636;28;20030;-59
2022/10/27 07:47:55;;;;;;;2.92;2.10;;;;;;;19.27;58.24;102125.72;5055370;28;20033;-60
2022/10/27 07:50:22;;;;;;;3.85;1.73;;;;;;;19.26;58.54;102115.91;5055907;28;20037;-60
2022/10/27 07:52:50;;;;;;;2.63;1.85;;;;;;;19.28;58.75;102132.78;5047801;28;20036;-60
2022/10/27 07:55:16;;;;;;;3.30;2.03;;;;;;;19.28;58.94;102123.84;5049649;28;20045;-59
2022/10/27 07:57:42;;;;;;;3.67;1.70;;;;;;;19.14;58.73;102092.78;5056061;28;20532;-59
2022/10/27 08:00:14;;;;;;;2.67;1.77;;;;;;;19.28;58.69;102118.47;5053244;28;20096;-59
2022/10/27 08:02:39;;;;;;;2.30;1.75;;;;;;;19.28;58.55;102119.31;5062851;28;20033;-59
2022/10/27 08:05:05;;;;;;;3.65;2.17;;;;;;;19.28;58.70;102110.38;5063014;28;20044;-58
2022/10/27 08:07:30;;;;;;;4.70;2.15;;;;;;;19.21;58.59;102096.63;5061692;28;20033;-58
2022/10/27 08:09:56;;;;;;;3.00;2.03;;;;;;;19.28;58.72;102108.53;5063312;28;20035;-57
2022/10/27 08:12:21;;;;;;;2.47;1.83;;;;;;;19.21;58.57;102094.78;5063546;28;20036;-59
2022/10/27 08:14:46;;;;;;;2.95;2.05;;;;;;;19.29;58.79;102106.72;5060753;28;20036;-59
2022/10/27 08:17:12;;;;;;;3.90;1.90;;;;;;;19.27;58.90;102096.03;5062606;28;20048;-59
2022/10/27 08:19:38;;;;;;;3.20;2.10;;;;;;;19.29;58.69;102099.47;5063320;28;20047;-59
2022/10/27 08:22:04;;;;;;;3.90;1.70;;;;;;;19.30;58.72;102108.41;5062578;28;20091;-59
2022/10/27 08:24:29;;;;;;;2.35;1.88;;;;;;;19.29;58.73;102098.63;5062997;28;20021;-59
2022/10/27 08:26:54;;;;;;;3.70;2.38;;;;;;;19.31;58.58;102094.78;5062924;28;20025;-59
2022/10/27 08:29:19;;;;;;;3.95;2.17;;;;;;;19.29;58.38;102101.31;5062799;28;20039;-57
2022/10/27 08:31:45;;;;;;;3.70;1.73;;;;;;;19.34;58.33;102104.44;5062404;28;20087;-59
2022/10/27 08:34:10;;;;;;;2.00;1.60;;;;;;;19.29;58.40;102088.69;5062563;28;20047;-59
2022/10/27 08:36:38;;;;;;;3.10;1.80;;;;;;;19.37;58.53;102096.03;5058057;28;20025;-59
2022/10/27 08:39:07;;;;;;;2.47;2.08;;;;;;;19.35;58.37;102090.78;5052263;28;20034;-60
2022/10/27 08:41:45;;;;;;;3.10;1.80;;;;;;;19.40;58.44;102098.44;5050694;28;20039;-57
2022/10/27 08:44:19;;;;;;;2.40;1.85;;;;;;;19.32;58.27;102085.69;5061711;28;20021;-57
2022/10/27 08:46:58;;;;;;;3.63;1.92;;;;;;;19.44;58.32;102094.47;5061108;28;20045;-58
2022/10/27 08:49:39;;;;;;;2.58;1.90;;;;;;;19.46;58.43;102101.44;5058134;28;20045;-59
2022/10/27 08:52:12;;;;;;;2.70;1.70;;;;;;;19.48;58.17;102104.84;5050561;28;20028;-58
2022/10/27 08:54:38;;;;;;;3.70;1.98;;;;;;;19.50;57.83;102099.31;5047484;28;20036;-58
2022/10/27 08:57:04;;;;;;;3.40;1.90;;;;;;;19.51;57.64;102098.31;5042275;28;20034;-58
2022/10/27 08:59:30;;;;;;;3.25;1.90;;;;;;;19.44;57.92;102091.78;5076780;28;20021;-58
2022/10/27 09:02:07;;;;;;;2.58;1.70;;;;;;;19.52;57.99;102097.31;5053974;28;20053;-59
2022/10/27 09:04:43;;;;;;;3.47;2.03;;;;;;;19.54;57.71;102094.47;5059820;28;20036;-59
2022/10/27 09:07:26;;;;;;;3.00;2.10;;;;;;;19.54;57.88;102097.16;5058875;28;20032;-59
2022/10/27 09:09:56;;;;;;;2.58;1.60;;;;;;;19.54;57.71;102099.84;5042768;28;20029;-60
2022/10/27 09:12:44;;;;;;;2.78;1.73;;;;;;;19.53;57.88;102099.00;5053124;28;20088;-60
2022/10/27 09:15:20;;;;;;;2.53;1.77;;;;;;;19.54;57.96;102098.03;5060923;28;20033;-60
2022/10/27 09:17:58;;;;;;;3.22;1.95;;;;;;;19.55;58.04;102098.88;5057229;28;20044;-59
2022/10/27 09:20:32;;;;;;;3.03;1.70;;;;;;;19.55;57.62;102090.78;5057280;28;20037;-61
2022/10/27 09:22:59;;;;;;;2.33;1.70;;;;;;;19.56;57.73;102085.25;5064838;28;20112;-60
2022/10/27 09:25:24;;;;;;;3.72;1.70;;;;;;;19.58;57.65;102085.09;5062352;28;20025;-59
2022/10/27 09:27:51;;;;;;;3.88;2.08;;;;;;;19.58;57.52;102067.09;5058348;28;20051;-58
2022/10/27 09:30:17;;;;;;;4.00;1.85;;;;;;;19.57;57.56;102070.75;5055049;28;20063;-59
2022/10/27 09:32:48;;;;;;;3.38;1.98;;;;;;;19.52;57.62;102056.00;5058898;28;20033;-61
2022/10/27 09:35:21;;;;;;;2.55;1.95;;;;;;;19.60;57.46;102066.91;5061563;28;20025;-60
2022/10/27 09:37:46;;;;;;;1.95;1.50;;;;;;;19.60;57.65;102058.81;5050813;28;20017;-60
2022/10/27 09:40:16;;;;;;;2.35;1.50;;;;;;;19.61;57.49;102049.75;5055412;28;20033;-59
2022/10/27 09:42:42;;;;;;;2.45;1.52;;;;;;;19.57;57.60;102040.22;5059195;28;20027;-59
2022/10/27 09:45:17;;;;;;;2.40;1.50;;;;;;;19.61;57.58;102049.75;5047572;28;20033;-60
2022/10/27 09:47:45;;;;;;;2.63;1.60;;;;;;;19.56;57.58;102036.69;5045850;28;20033;-59
2022/10/27 09:50:22;;;;;;;3.42;1.85;;;;;;;19.64;57.86;102038.69;5051389;28;20462;-61
2022/10/27 09:52:47;;;;;;;2.63;1.60;;;;;;;19.54;57.56;102019.81;5045368;28;20053;-58
2022/10/27 09:55:13;;;;;;;5.00;2.05;;;;;;;19.57;57.52;102026.75;5045823;28;20021;-57
2022/10/27 09:57:40;;;;;;;1.90;1.70;;;;;;;19.72;57.48;102045.06;5045871;28;20427;-57
2022/10/27 10:00:24;;;;;;;4.07;1.80;;;;;;;19.75;57.23;102029.56;5044535;28;20053;-58
2022/10/27 10:03:21;;;;;;;2.40;1.58;;;;;;;19.80;57.25;102035.38;5051870;28;20031;-58
2022/10/27 10:06:00;;;;;;;1.67;1.30;;;;;;;19.82;57.40;102038.78;5064596;28;20055;-58
2022/10/27 10:08:28;;;;;;;2.90;1.67;;;;;;;19.84;57.13;102043.03;5065714;28;20039;-58
2022/10/27 10:11:05;;;;;;;3.17;1.70;;;;;;;19.86;57.35;102042.88;5065514;28;20051;-57
2022/10/27 10:13:33;;;;;;;2.45;1.75;;;;;;;19.88;57.04;102039.03;5058562;28;20029;-58
2022/10/27 10:16:26;;;;;;;4.85;1.98;;;;;;;19.91;56.92;102025.22;5045040;28;20049;-58
2022/10/27 10:19:10;;;;;;;2.10;1.40;;;;;;;19.93;56.90;102017.84;5041482;28;20128;-57
2022/10/27 10:21:54;;;;;;;3.00;1.90;;;;;;;19.94;57.20;102016.84;5043614;28;20025;-58
2022/10/27 10:24:23;;;;;;;2.45;1.58;;;;;;;19.97;57.08;102021.13;5044180;28;20041;-57
2022/10/27 10:26:57;;;;;;;3.22;1.77;;;;;;;19.97;57.01;102010.31;5045249;28;20064;-58
2022/10/27 10:29:29;;;;;;;4.53;1.88;;;;;;;19.98;56.73;102004.75;5044058;28;20037;-58
2022/10/27 10:32:15;;;;;;;3.35;1.98;;;;;;;19.99;57.02;102002.91;5054341;28;20457;-57
2022/10/27 10:34:44;;;;;;;2.90;2.08;;;;;;;19.98;56.65;101996.66;5064275;28;20033;-57
2022/10/27 10:37:40;;;;;;;2.80;1.70;;;;;;;20.00;56.66;101993.78;5063918;28;20152;-58
2022/10/27 10:40:15;;;;;;;1.90;1.33;;;;;;;20.01;57.01;101995.53;5057538;28;20477;-57
2022/10/27 10:42:44;;;;;;;3.42;1.70;;;;;;;20.01;57.07;101998.22;5065554;28;20025;-57
2022/10/27 10:45:17;;;;;;;;;;;;;;;20.03;56.69;102009.69;5065733;28;20025;-57
2022/10/27 10:47:47;;;;;;;2.63;1.50;;;;;;;20.04;57.05;102005.16;5065058;28;19908;-56
2022/10/27 10:50:13;;;;;;;2.45;1.45;;;;;;;20.04;57.10;102005.16;5064141;28;20549;-57
2022/10/27 10:52:45;;;;;;;3.38;1.40;;;;;;;20.04;56.76;102007.84;5064593;28;20035;-57
2022/10/27 10:55:19;;;;;;;2.50;1.60;;;;;;;20.04;56.56;101997.91;5065058;28;20044;-54
2022/10/27 10:57:45;;;;;;;2.50;1.40;;;;;;;20.05;56.71;101993.34;5063630;28;20021;-57
2022/10/27 11:00:18;;;;;;;2.67;1.40;;;;;;;20.05;56.96;101986.13;5065029;28;20041;-57
2022/10/27 11:03:00;;;;;;;3.10;1.73;;;;;;;20.06;56.73;101982.41;5063286;28;20032;-58
2022/10/27 11:05:30;;;;;;;3.85;1.60;;;;;;;20.06;56.53;101965.38;5064674;28;20043;-54
2022/10/27 11:07:56;;;;;;;2.67;1.70;;;;;;;20.04;56.48;101954.69;5056032;28;20028;-55
2022/10/27 11:10:24;;;;;;;2.53;1.55;;;;;;;20.06;56.59;101950.03;5059838;28;20029;-56
2022/10/27 11:13:00;;;;;;;3.00;1.55;;;;;;;20.06;56.87;101947.31;5044937;28;20091;-55
2022/10/27 11:15:30;;;;;;;4.50;1.83;;;;;;;20.06;56.65;101947.31;5079836;28;20021;-54
2022/10/27 11:18:02;;;;;;;2.67;1.75;;;;;;;20.07;56.68;101940.06;5079492;28;20033;-58
2022/10/27 11:20:31;;;;;;;3.05;1.70;;;;;;;20.07;56.55;101954.41;5063140;28;20025;-56
2022/10/27 11:22:57;;;;;;;2.75;1.60;;;;;;;20.09;56.90;101943.44;5063653;28;20024;-53
2022/10/27 11:25:25;;;;;;;4.38;2.00;;;;;;;20.09;56.82;101957.81;5062843;28;20029;-54
2022/10/27 11:28:02;;;;;;;3.13;2.03;;;;;;;20.09;56.97;101952.44;5063002;28;20053;-54
2022/10/27 11:30:28;;;;;;;2.83;1.60;;;;;;;20.11;56.65;101961.22;5064572;28;20025;-55
2022/10/27 11:33:38;;;;;;;2.60;1.70;;;;;;;20.11;56.55;101957.66;5078636;28;20086;-55